sensor_id;sensor_type;location;lat;lon;timestamp;pressure;altitude;pressure_sealevel;temperature;humidity
55755;BME280;41674;52.290;-1.474;2024-01-11T00:00:25;102796.03;;;2.22;78.98
55755;BME280;41674;52.290;-1.474;2024-01-11T00:02:54;102795.40;;;2.02;80.75
55755;BME280;41674;52.290;-1.474;2024-01-11T00:05:24;102799.77;;;1.95;81.06
55755;BME280;41674;52.290;-1.474;2024-01-11T00:07:54;102796.41;;;2.64;78.13
55755;BME280;41674;52.290;-1.474;2024-01-11T00:10:24;102798.95;;;2.69;76.92
55755;BME280;41674;52.290;-1.474;2024-01-11T00:12:53;102804.15;;;2.61;77.73
55755;BME280;41674;52.290;-1.474;2024-01-11T00:15:23;102801.59;;;2.30;80.10
55755;BME280;41674;52.290;-1.474;2024-01-11T00:17:53;102800.37;;;2.23;78.62
55755;BME280;41674;52.290;-1.474;2024-01-11T00:20:23;102797.79;;;2.48;78.40
55755;BME280;41674;52.290;-1.474;2024-01-11T00:22:52;102796.95;;;1.62;81.67
55755;BME280;41674;52.290;-1.474;2024-01-11T00:25:24;102796.96;;;1.45;81.67
55755;BME280;41674;52.290;-1.474;2024-01-11T00:27:52;102799.11;;;1.42;84.40
55755;BME280;41674;52.290;-1.474;2024-01-11T00:30:23;102802.22;;;1.01;82.30
55755;BME280;41674;52.290;-1.474;2024-01-11T00:32:51;102801.43;;;1.31;84.76
55755;BME280;41674;52.290;-1.474;2024-01-11T00:35:21;102803.50;;;1.52;82.42
55755;BME280;41674;52.290;-1.474;2024-01-11T00:37:51;102806.23;;;0.76;88.04
55755;BME280;41674;52.290;-1.474;2024-01-11T00:40:21;102809.57;;;0.04;91.89
55755;BME280;41674;52.290;-1.474;2024-01-11T00:42:50;102811.30;;;0.53;91.16
55755;BME280;41674;52.290;-1.474;2024-01-11T00:45:20;102804.57;;;0.92;87.92
55755;BME280;41674;52.290;-1.474;2024-01-11T00:47:50;102808.82;;;-0.18;91.20
55755;BME280;41674;52.290;-1.474;2024-01-11T00:50:20;102808.68;;;-0.05;91.70
55755;BME280;41674;52.290;-1.474;2024-01-11T00:52:49;102811.72;;;0.28;89.48
55755;BME280;41674;52.290;-1.474;2024-01-11T00:55:19;102810.25;;;-0.20;91.68
55755;BME280;41674;52.290;-1.474;2024-01-11T00:57:49;102809.58;;;-0.34;96.91
55755;BME280;41674;52.290;-1.474;2024-01-11T01:00:20;102814.26;;;0.82;90.79
55755;BME280;41674;52.290;-1.474;2024-01-11T01:02:48;102820.87;;;0.34;89.95
55755;BME280;41674;52.290;-1.474;2024-01-11T01:05:18;102824.64;;;-0.37;94.46
55755;BME280;41674;52.290;-1.474;2024-01-11T01:07:48;102825.21;;;0.87;90.90
55755;BME280;41674;52.290;-1.474;2024-01-11T01:10:17;102823.54;;;1.07;89.52
55755;BME280;41674;52.290;-1.474;2024-01-11T01:12:49;102827.57;;;0.67;89.61
55755;BME280;41674;52.290;-1.474;2024-01-11T01:15:17;102826.23;;;-0.01;92.18
55755;BME280;41674;52.290;-1.474;2024-01-11T01:17:47;102829.74;;;-0.94;98.11
55755;BME280;41674;52.290;-1.474;2024-01-11T01:20:16;102826.43;;;-0.68;97.73
55755;BME280;41674;52.290;-1.474;2024-01-11T01:22:46;102829.46;;;0.15;95.16
55755;BME280;41674;52.290;-1.474;2024-01-11T01:25:16;102834.04;;;-0.89;97.69
55755;BME280;41674;52.290;-1.474;2024-01-11T01:27:47;102831.46;;;0.01;92.78
55755;BME280;41674;52.290;-1.474;2024-01-11T01:30:15;102832.51;;;0.62;92.15
55755;BME280;41674;52.290;-1.474;2024-01-11T01:32:45;102830.37;;;0.48;90.97
55755;BME280;41674;52.290;-1.474;2024-01-11T01:35:16;102830.87;;;0.20;94.30
55755;BME280;41674;52.290;-1.474;2024-01-11T01:37:45;102834.23;;;-0.06;96.71
55755;BME280;41674;52.290;-1.474;2024-01-11T01:40:16;102838.98;;;0.92;91.07
55755;BME280;41674;52.290;-1.474;2024-01-11T01:42:45;102841.87;;;0.56;92.22
55755;BME280;41674;52.290;-1.474;2024-01-11T01:45:15;102839.40;;;0.55;93.11
55755;BME280;41674;52.290;-1.474;2024-01-11T01:47:45;102844.49;;;0.01;96.15
55755;BME280;41674;52.290;-1.474;2024-01-11T01:50:13;102843.47;;;-0.25;97.45
55755;BME280;41674;52.290;-1.474;2024-01-11T01:52:43;102844.77;;;0.62;92.42
55755;BME280;41674;52.290;-1.474;2024-01-11T01:55:14;102848.58;;;0.12;94.13
55755;BME280;41674;52.290;-1.474;2024-01-11T01:57:43;102850.48;;;0.51;93.79
55755;BME280;41674;52.290;-1.474;2024-01-11T02:00:13;102850.66;;;0.15;96.93
55755;BME280;41674;52.290;-1.474;2024-01-11T02:02:43;102854.50;;;0.23;94.22
55755;BME280;41674;52.290;-1.474;2024-01-11T02:05:13;102861.05;;;0.46;94.81
55755;BME280;41674;52.290;-1.474;2024-01-11T02:07:42;102865.18;;;0.21;96.17
55755;BME280;41674;52.290;-1.474;2024-01-11T02:10:12;102868.07;;;0.49;93.17
55755;BME280;41674;52.290;-1.474;2024-01-11T02:12:41;102871.50;;;0.63;92.75
55755;BME280;41674;52.290;-1.474;2024-01-11T02:15:11;102869.88;;;2.06;86.38
55755;BME280;41674;52.290;-1.474;2024-01-11T02:17:41;102870.69;;;2.10;85.69
55755;BME280;41674;52.290;-1.474;2024-01-11T02:20:11;102876.17;;;1.74;87.25
55755;BME280;41674;52.290;-1.474;2024-01-11T02:22:45;102878.28;;;1.06;88.35
55755;BME280;41674;52.290;-1.474;2024-01-11T02:25:10;102877.70;;;1.27;87.89
55755;BME280;41674;52.290;-1.474;2024-01-11T02:27:46;102883.40;;;0.67;88.89
55755;BME280;41674;52.290;-1.474;2024-01-11T02:30:11;102884.97;;;1.37;89.27
55755;BME280;41674;52.290;-1.474;2024-01-11T02:32:39;102882.30;;;1.53;88.03
55755;BME280;41674;52.290;-1.474;2024-01-11T02:35:09;102883.33;;;0.86;91.40
55755;BME280;41674;52.290;-1.474;2024-01-11T02:37:39;102885.23;;;0.95;89.22
55755;BME280;41674;52.290;-1.474;2024-01-11T02:40:09;102890.86;;;1.04;89.26
55755;BME280;41674;52.290;-1.474;2024-01-11T02:42:39;102890.95;;;1.37;89.55
55755;BME280;41674;52.290;-1.474;2024-01-11T02:45:08;102891.51;;;1.16;88.63
55755;BME280;41674;52.290;-1.474;2024-01-11T02:47:38;102896.97;;;0.71;91.06
55755;BME280;41674;52.290;-1.474;2024-01-11T02:50:08;102897.88;;;1.44;89.99
55755;BME280;41674;52.290;-1.474;2024-01-11T02:52:37;102897.24;;;1.21;89.61
55755;BME280;41674;52.290;-1.474;2024-01-11T02:55:07;102895.12;;;0.42;92.35
55755;BME280;41674;52.290;-1.474;2024-01-11T02:57:36;102899.16;;;0.59;91.74
55755;BME280;41674;52.290;-1.474;2024-01-11T03:00:07;102904.05;;;0.44;91.53
55755;BME280;41674;52.290;-1.474;2024-01-11T03:02:37;102902.55;;;1.47;87.47
55755;BME280;41674;52.290;-1.474;2024-01-11T03:05:06;102900.14;;;1.72;85.06
55755;BME280;41674;52.290;-1.474;2024-01-11T03:07:36;102899.35;;;1.05;85.24
55755;BME280;41674;52.290;-1.474;2024-01-11T03:10:06;102904.69;;;1.11;85.94
55755;BME280;41674;52.290;-1.474;2024-01-11T03:12:35;102900.96;;;0.55;90.76
55755;BME280;41674;52.290;-1.474;2024-01-11T03:15:07;102903.51;;;-0.15;91.31
55755;BME280;41674;52.290;-1.474;2024-01-11T03:17:36;102904.02;;;-0.09;93.65
55755;BME280;41674;52.290;-1.474;2024-01-11T03:20:05;102902.74;;;0.28;92.79
55755;BME280;41674;52.290;-1.474;2024-01-11T03:22:34;102905.14;;;-0.58;95.79
55755;BME280;41674;52.290;-1.474;2024-01-11T03:25:04;102906.07;;;-0.47;96.01
55755;BME280;41674;52.290;-1.474;2024-01-11T03:27:33;102913.35;;;-0.11;93.08
55755;BME280;41674;52.290;-1.474;2024-01-11T03:30:04;102911.82;;;1.38;88.87
55755;BME280;41674;52.290;-1.474;2024-01-11T03:32:32;102915.37;;;0.50;93.21
55755;BME280;41674;52.290;-1.474;2024-01-11T03:35:04;102916.92;;;-0.19;95.49
55755;BME280;41674;52.290;-1.474;2024-01-11T03:37:32;102918.03;;;-0.12;95.95
55755;BME280;41674;52.290;-1.474;2024-01-11T03:40:03;102924.04;;;0.19;96.71
55755;BME280;41674;52.290;-1.474;2024-01-11T03:42:31;102924.89;;;-0.37;95.86
55755;BME280;41674;52.290;-1.474;2024-01-11T03:45:04;102926.23;;;0.53;94.42
55755;BME280;41674;52.290;-1.474;2024-01-11T03:47:32;102925.91;;;0.04;93.68
55755;BME280;41674;52.290;-1.474;2024-01-11T03:50:01;102930.25;;;0.82;91.75
55755;BME280;41674;52.290;-1.474;2024-01-11T03:52:30;102932.74;;;0.78;90.73
55755;BME280;41674;52.290;-1.474;2024-01-11T03:55:00;102933.24;;;0.47;93.48
55755;BME280;41674;52.290;-1.474;2024-01-11T03:57:30;102932.73;;;-0.05;95.98
55755;BME280;41674;52.290;-1.474;2024-01-11T04:00:00;102938.06;;;0.35;94.75
55755;BME280;41674;52.290;-1.474;2024-01-11T04:02:29;102941.83;;;-0.10;96.98
55755;BME280;41674;52.290;-1.474;2024-01-11T04:04:59;102937.26;;;0.27;95.69
55755;BME280;41674;52.290;-1.474;2024-01-11T04:07:29;102939.03;;;0.54;93.39
55755;BME280;41674;52.290;-1.474;2024-01-11T04:09:59;102936.41;;;1.22;88.66
55755;BME280;41674;52.290;-1.474;2024-01-11T04:12:29;102941.09;;;0.69;87.92
55755;BME280;41674;52.290;-1.474;2024-01-11T04:14:58;102943.17;;;1.08;89.67
55755;BME280;41674;52.290;-1.474;2024-01-11T04:17:29;102942.05;;;-0.12;93.46
55755;BME280;41674;52.290;-1.474;2024-01-11T04:19:58;102939.99;;;0.13;93.36
55755;BME280;41674;52.290;-1.474;2024-01-11T04:22:28;102939.93;;;0.37;92.06
55755;BME280;41674;52.290;-1.474;2024-01-11T04:24:57;102942.30;;;0.80;90.07
55755;BME280;41674;52.290;-1.474;2024-01-11T04:27:27;102946.75;;;0.38;89.94
55755;BME280;41674;52.290;-1.474;2024-01-11T04:29:58;102954.04;;;0.34;91.06
55755;BME280;41674;52.290;-1.474;2024-01-11T04:32:26;102952.38;;;0.85;90.75
55755;BME280;41674;52.290;-1.474;2024-01-11T04:34:56;102950.40;;;-0.32;93.23
55755;BME280;41674;52.290;-1.474;2024-01-11T04:37:26;102951.44;;;0.30;90.48
55755;BME280;41674;52.290;-1.474;2024-01-11T04:39:56;102952.59;;;0.16;92.15
55755;BME280;41674;52.290;-1.474;2024-01-11T04:42:26;102959.10;;;0.71;90.92
55755;BME280;41674;52.290;-1.474;2024-01-11T04:44:55;102960.58;;;1.10;87.33
55755;BME280;41674;52.290;-1.474;2024-01-11T04:47:26;102963.24;;;1.57;84.65
55755;BME280;41674;52.290;-1.474;2024-01-11T04:49:54;102964.84;;;1.99;82.31
55755;BME280;41674;52.290;-1.474;2024-01-11T04:52:24;102969.18;;;1.11;87.76
55755;BME280;41674;52.290;-1.474;2024-01-11T04:54:54;102977.62;;;-0.06;93.06
55755;BME280;41674;52.290;-1.474;2024-01-11T04:57:24;102984.47;;;0.01;94.80
55755;BME280;41674;52.290;-1.474;2024-01-11T04:59:53;102982.50;;;0.49;91.82
55755;BME280;41674;52.290;-1.474;2024-01-11T05:02:23;102990.56;;;-0.10;94.96
55755;BME280;41674;52.290;-1.474;2024-01-11T05:04:55;102991.05;;;-0.95;99.49
55755;BME280;41674;52.290;-1.474;2024-01-11T05:07:23;102994.34;;;-0.35;98.73
55755;BME280;41674;52.290;-1.474;2024-01-11T05:09:52;102998.48;;;-0.35;95.60
55755;BME280;41674;52.290;-1.474;2024-01-11T05:12:22;102996.38;;;0.08;95.23
55755;BME280;41674;52.290;-1.474;2024-01-11T05:14:52;103004.55;;;-0.60;96.86
55755;BME280;41674;52.290;-1.474;2024-01-11T05:17:22;102999.46;;;0.75;92.47
55755;BME280;41674;52.290;-1.474;2024-01-11T05:19:51;102998.68;;;0.37;90.31
55755;BME280;41674;52.290;-1.474;2024-01-11T05:22:23;103003.26;;;0.95;88.97
55755;BME280;41674;52.290;-1.474;2024-01-11T05:24:51;103014.65;;;-0.43;94.40
55755;BME280;41674;52.290;-1.474;2024-01-11T05:27:21;103019.21;;;0.41;92.10
55755;BME280;41674;52.290;-1.474;2024-01-11T05:29:51;103017.71;;;0.24;94.17
55755;BME280;41674;52.290;-1.474;2024-01-11T05:32:20;103015.52;;;0.45;90.96
55755;BME280;41674;52.290;-1.474;2024-01-11T05:34:50;103017.52;;;0.72;91.03
55755;BME280;41674;52.290;-1.474;2024-01-11T05:37:22;103017.89;;;1.00;89.72
55755;BME280;41674;52.290;-1.474;2024-01-11T05:39:49;103027.99;;;-0.36;94.37
55755;BME280;41674;52.290;-1.474;2024-01-11T05:42:19;103029.03;;;0.24;91.32
55755;BME280;41674;52.290;-1.474;2024-01-11T05:44:49;103027.74;;;0.42;93.32
55755;BME280;41674;52.290;-1.474;2024-01-11T05:47:20;103025.74;;;0.93;89.91
55755;BME280;41674;52.290;-1.474;2024-01-11T05:49:48;103026.44;;;0.35;91.89
55755;BME280;41674;52.290;-1.474;2024-01-11T05:52:18;103031.13;;;0.54;92.25
55755;BME280;41674;52.290;-1.474;2024-01-11T05:54:48;103030.54;;;1.20;88.18
55755;BME280;41674;52.290;-1.474;2024-01-11T05:57:19;103032.26;;;1.09;87.68
55755;BME280;41674;52.290;-1.474;2024-01-11T05:59:47;103032.00;;;0.52;90.49
55755;BME280;41674;52.290;-1.474;2024-01-11T06:02:19;103034.18;;;0.94;88.59
55755;BME280;41674;52.290;-1.474;2024-01-11T06:04:47;103031.68;;;0.96;88.77
55755;BME280;41674;52.290;-1.474;2024-01-11T06:07:16;103034.55;;;0.94;89.01
55755;BME280;41674;52.290;-1.474;2024-01-11T06:09:46;103038.78;;;1.00;88.05
55755;BME280;41674;52.290;-1.474;2024-01-11T06:12:16;103052.29;;;-0.21;92.14
55755;BME280;41674;52.290;-1.474;2024-01-11T06:14:46;103052.40;;;0.06;91.42
55755;BME280;41674;52.290;-1.474;2024-01-11T06:17:15;103056.80;;;-0.51;95.16
55755;BME280;41674;52.290;-1.474;2024-01-11T06:19:45;103060.92;;;-0.10;93.83
55755;BME280;41674;52.290;-1.474;2024-01-11T06:22:15;103060.95;;;0.50;92.59
55755;BME280;41674;52.290;-1.474;2024-01-11T06:24:45;103053.24;;;1.05;88.94
55755;BME280;41674;52.290;-1.474;2024-01-11T06:27:14;103052.12;;;0.82;87.83
55755;BME280;41674;52.290;-1.474;2024-01-11T06:29:46;103055.57;;;0.61;89.34
55755;BME280;41674;52.290;-1.474;2024-01-11T06:32:14;103058.71;;;1.28;87.75
55755;BME280;41674;52.290;-1.474;2024-01-11T06:34:44;103053.90;;;0.84;87.61
55755;BME280;41674;52.290;-1.474;2024-01-11T06:37:13;103059.48;;;1.33;87.62
55755;BME280;41674;52.290;-1.474;2024-01-11T06:39:43;103062.91;;;1.32;85.16
55755;BME280;41674;52.290;-1.474;2024-01-11T06:42:13;103062.00;;;1.56;85.97
55755;BME280;41674;52.290;-1.474;2024-01-11T06:44:43;103064.60;;;1.42;85.90
55755;BME280;41674;52.290;-1.474;2024-01-11T06:47:12;103065.31;;;2.00;82.53
55755;BME280;41674;52.290;-1.474;2024-01-11T06:49:42;103066.45;;;1.84;83.07
55755;BME280;41674;52.290;-1.474;2024-01-11T06:52:12;103076.44;;;0.55;87.82
55755;BME280;41674;52.290;-1.474;2024-01-11T06:54:42;103073.10;;;1.90;83.79
55755;BME280;41674;52.290;-1.474;2024-01-11T06:57:11;103077.10;;;2.13;83.48
55755;BME280;41674;52.290;-1.474;2024-01-11T06:59:44;103079.73;;;1.13;85.52
55755;BME280;41674;52.290;-1.474;2024-01-11T07:02:11;103080.70;;;0.88;87.07
55755;BME280;41674;52.290;-1.474;2024-01-11T07:04:45;103085.73;;;1.83;85.51
55755;BME280;41674;52.290;-1.474;2024-01-11T07:07:10;103088.22;;;1.79;84.71
55755;BME280;41674;52.290;-1.474;2024-01-11T07:09:40;103091.09;;;2.24;82.25
55755;BME280;41674;52.290;-1.474;2024-01-11T07:12:11;103095.57;;;2.60;80.62
55755;BME280;41674;52.290;-1.474;2024-01-11T07:14:39;103093.47;;;2.55;80.22
55755;BME280;41674;52.290;-1.474;2024-01-11T07:17:09;103095.44;;;1.56;84.59
55755;BME280;41674;52.290;-1.474;2024-01-11T07:19:42;103094.08;;;2.22;80.91
55755;BME280;41674;52.290;-1.474;2024-01-11T07:22:09;103098.50;;;1.50;85.33
55755;BME280;41674;52.290;-1.474;2024-01-11T07:24:38;103100.73;;;2.21;82.24
55755;BME280;41674;52.290;-1.474;2024-01-11T07:27:08;103104.06;;;2.10;83.33
55755;BME280;41674;52.290;-1.474;2024-01-11T07:29:38;103110.48;;;1.87;83.81
55755;BME280;41674;52.290;-1.474;2024-01-11T07:32:07;103116.50;;;1.03;86.60
55755;BME280;41674;52.290;-1.474;2024-01-11T07:34:37;103113.96;;;1.05;89.04
55755;BME280;41674;52.290;-1.474;2024-01-11T07:37:07;103108.97;;;1.35;87.20
55755;BME280;41674;52.290;-1.474;2024-01-11T07:39:37;103111.84;;;2.10;82.41
55755;BME280;41674;52.290;-1.474;2024-01-11T07:42:06;103114.32;;;1.55;83.74
55755;BME280;41674;52.290;-1.474;2024-01-11T07:44:36;103116.57;;;1.40;84.08
55755;BME280;41674;52.290;-1.474;2024-01-11T07:47:08;103121.24;;;0.61;86.64
55755;BME280;41674;52.290;-1.474;2024-01-11T07:49:36;103122.94;;;1.33;84.98
55755;BME280;41674;52.290;-1.474;2024-01-11T07:52:06;103125.00;;;2.14;82.46
55755;BME280;41674;52.290;-1.474;2024-01-11T07:54:35;103125.73;;;2.59;79.61
55755;BME280;41674;52.290;-1.474;2024-01-11T07:57:05;103129.53;;;2.41;80.91
55755;BME280;41674;52.290;-1.474;2024-01-11T07:59:35;103135.16;;;1.87;82.30
55755;BME280;41674;52.290;-1.474;2024-01-11T08:02:05;103138.74;;;1.90;85.13
55755;BME280;41674;52.290;-1.474;2024-01-11T08:04:36;103142.47;;;2.59;80.48
55755;BME280;41674;52.290;-1.474;2024-01-11T08:07:04;103150.45;;;2.32;81.33
55755;BME280;41674;52.290;-1.474;2024-01-11T08:09:33;103159.48;;;1.78;83.10
55755;BME280;41674;52.290;-1.474;2024-01-11T08:12:05;103160.81;;;2.27;81.31
55755;BME280;41674;52.290;-1.474;2024-01-11T08:14:33;103165.43;;;1.94;83.23
55755;BME280;41674;52.290;-1.474;2024-01-11T08:17:03;103177.00;;;1.48;86.50
55755;BME280;41674;52.290;-1.474;2024-01-11T08:19:33;103180.75;;;2.29;82.07
55755;BME280;41674;52.290;-1.474;2024-01-11T08:22:02;103191.78;;;0.55;88.80
55755;BME280;41674;52.290;-1.474;2024-01-11T08:24:35;103194.80;;;1.06;87.86
55755;BME280;41674;52.290;-1.474;2024-01-11T08:27:02;103192.76;;;0.88;87.59
55755;BME280;41674;52.290;-1.474;2024-01-11T08:29:31;103184.78;;;2.21;84.19
55755;BME280;41674;52.290;-1.474;2024-01-11T08:32:01;103193.76;;;1.57;85.18
55755;BME280;41674;52.290;-1.474;2024-01-11T08:34:31;103198.93;;;1.00;87.98
55755;BME280;41674;52.290;-1.474;2024-01-11T08:37:00;103197.15;;;1.40;85.94
55755;BME280;41674;52.290;-1.474;2024-01-11T08:39:32;103201.66;;;0.86;87.87
55755;BME280;41674;52.290;-1.474;2024-01-11T08:42:00;103202.11;;;0.95;88.41
55755;BME280;41674;52.290;-1.474;2024-01-11T08:44:30;103196.14;;;1.25;84.83
55755;BME280;41674;52.290;-1.474;2024-01-11T08:47:01;103206.20;;;1.01;88.04
55755;BME280;41674;52.290;-1.474;2024-01-11T08:49:29;103207.20;;;0.71;88.33
55755;BME280;41674;52.290;-1.474;2024-01-11T08:51:59;103210.84;;;0.87;91.56
55755;BME280;41674;52.290;-1.474;2024-01-11T08:54:29;103220.86;;;0.88;91.91
55755;BME280;41674;52.290;-1.474;2024-01-11T08:56:58;103225.13;;;1.45;87.79
55755;BME280;41674;52.290;-1.474;2024-01-11T08:59:30;103233.62;;;1.03;89.92
55755;BME280;41674;52.290;-1.474;2024-01-11T09:01:58;103233.07;;;1.05;90.08
55755;BME280;41674;52.290;-1.474;2024-01-11T09:04:29;103231.61;;;0.03;92.50
55755;BME280;41674;52.290;-1.474;2024-01-11T09:06:57;103233.13;;;1.01;91.29
55755;BME280;41674;52.290;-1.474;2024-01-11T09:09:27;103235.01;;;1.25;90.05
55755;BME280;41674;52.290;-1.474;2024-01-11T09:11:59;103232.34;;;1.30;87.36
55755;BME280;41674;52.290;-1.474;2024-01-11T09:14:26;103232.08;;;1.40;89.97
55755;BME280;41674;52.290;-1.474;2024-01-11T09:16:56;103230.45;;;1.36;88.36
55755;BME280;41674;52.290;-1.474;2024-01-11T09:19:26;103228.24;;;-0.35;96.60
55755;BME280;41674;52.290;-1.474;2024-01-11T09:21:57;103233.08;;;0.63;94.25
55755;BME280;41674;52.290;-1.474;2024-01-11T09:24:26;103236.12;;;1.53;90.35
55755;BME280;41674;52.290;-1.474;2024-01-11T09:26:55;103229.41;;;1.96;87.03
55755;BME280;41674;52.290;-1.474;2024-01-11T09:29:27;103235.36;;;2.11;85.43
55755;BME280;41674;52.290;-1.474;2024-01-11T09:31:55;103242.70;;;1.78;88.65
55755;BME280;41674;52.290;-1.474;2024-01-11T09:34:26;103242.07;;;2.10;87.21
55755;BME280;41674;52.290;-1.474;2024-01-11T09:36:56;103246.49;;;2.07;87.35
55755;BME280;41674;52.290;-1.474;2024-01-11T09:39:24;103248.73;;;1.78;87.41
55755;BME280;41674;52.290;-1.474;2024-01-11T09:41:58;103245.67;;;2.79;81.23
55755;BME280;41674;52.290;-1.474;2024-01-11T09:44:24;103247.91;;;2.90;80.50
55755;BME280;41674;52.290;-1.474;2024-01-11T09:46:53;103249.75;;;3.08;82.05
55755;BME280;41674;52.290;-1.474;2024-01-11T09:49:23;103254.51;;;2.89;83.38
55755;BME280;41674;52.290;-1.474;2024-01-11T09:51:53;103258.57;;;2.37;84.12
55755;BME280;41674;52.290;-1.474;2024-01-11T09:54:23;103271.74;;;1.95;87.99
55755;BME280;41674;52.290;-1.474;2024-01-11T09:56:54;103277.98;;;2.01;88.39
55755;BME280;41674;52.290;-1.474;2024-01-11T09:59:22;103288.32;;;1.57;88.10
55755;BME280;41674;52.290;-1.474;2024-01-11T10:01:51;103289.14;;;1.59;88.30
55755;BME280;41674;52.290;-1.474;2024-01-11T10:04:23;103285.40;;;2.71;84.84
55755;BME280;41674;52.290;-1.474;2024-01-11T10:06:52;103284.29;;;2.73;84.21
55755;BME280;41674;52.290;-1.474;2024-01-11T10:09:21;103283.67;;;2.59;83.82
55755;BME280;41674;52.290;-1.474;2024-01-11T10:11:50;103285.90;;;2.89;82.80
55755;BME280;41674;52.290;-1.474;2024-01-11T10:14:20;103287.85;;;3.09;83.52
55755;BME280;41674;52.290;-1.474;2024-01-11T10:16:51;103292.84;;;2.05;87.29
55755;BME280;41674;52.290;-1.474;2024-01-11T10:19:19;103290.80;;;2.82;84.73
55755;BME280;41674;52.290;-1.474;2024-01-11T10:21:49;103303.85;;;1.39;90.29
55755;BME280;41674;52.290;-1.474;2024-01-11T10:24:19;103302.10;;;2.38;86.61
55755;BME280;41674;52.290;-1.474;2024-01-11T10:26:49;103299.35;;;2.56;85.65
55755;BME280;41674;52.290;-1.474;2024-01-11T10:29:18;103304.79;;;2.22;88.26
55755;BME280;41674;52.290;-1.474;2024-01-11T10:34:18;103297.10;;;2.31;85.51
55755;BME280;41674;52.290;-1.474;2024-01-11T10:36:48;103293.57;;;3.13;81.98
55755;BME280;41674;52.290;-1.474;2024-01-11T10:39:17;103284.45;;;1.89;85.89
55755;BME280;41674;52.290;-1.474;2024-01-11T10:41:50;103287.17;;;3.48;81.38
55755;BME280;41674;52.290;-1.474;2024-01-11T10:44:19;103284.24;;;3.88;78.19
55755;BME280;41674;52.290;-1.474;2024-01-11T10:46:47;103291.58;;;4.04;77.52
55755;BME280;41674;52.290;-1.474;2024-01-11T10:49:18;103292.33;;;3.96;77.62
55755;BME280;41674;52.290;-1.474;2024-01-11T10:51:52;103291.70;;;3.46;79.87
55755;BME280;41674;52.290;-1.474;2024-01-11T10:54:15;103291.99;;;3.51;80.48
55755;BME280;41674;52.290;-1.474;2024-01-11T10:59:16;103295.39;;;3.34;81.24
55755;BME280;41674;52.290;-1.474;2024-01-11T11:01:46;103296.79;;;3.14;83.14
55755;BME280;41674;52.290;-1.474;2024-01-11T11:04:15;103294.50;;;2.66;83.95
55755;BME280;41674;52.290;-1.474;2024-01-11T11:06:44;103302.34;;;2.13;87.49
55755;BME280;41674;52.290;-1.474;2024-01-11T11:09:14;103308.57;;;2.24;89.79
55755;BME280;41674;52.290;-1.474;2024-01-11T11:11:45;103304.28;;;2.82;87.63
55755;BME280;41674;52.290;-1.474;2024-01-11T11:14:15;103303.98;;;2.88;86.68
55755;BME280;41674;52.290;-1.474;2024-01-11T11:16:45;103311.67;;;2.97;84.19
55755;BME280;41674;52.290;-1.474;2024-01-11T11:19:13;103314.87;;;3.39;85.34
55755;BME280;41674;52.290;-1.474;2024-01-11T11:21:42;103316.17;;;3.64;81.68
55755;BME280;41674;52.290;-1.474;2024-01-11T11:24:13;103313.81;;;3.97;80.63
55755;BME280;41674;52.290;-1.474;2024-01-11T11:26:42;103318.53;;;3.36;82.36
55755;BME280;41674;52.290;-1.474;2024-01-11T11:29:11;103315.06;;;4.31;79.18
55755;BME280;41674;52.290;-1.474;2024-01-11T11:31:43;103314.90;;;2.66;86.19
55755;BME280;41674;52.290;-1.474;2024-01-11T11:34:11;103315.49;;;3.19;83.17
55755;BME280;41674;52.290;-1.474;2024-01-11T11:36:41;103315.77;;;2.45;83.98
55755;BME280;41674;52.290;-1.474;2024-01-11T11:39:11;103314.69;;;3.01;82.83
55755;BME280;41674;52.290;-1.474;2024-01-11T11:41:40;103316.90;;;3.83;81.70
55755;BME280;41674;52.290;-1.474;2024-01-11T11:44:12;103317.04;;;3.19;83.93
55755;BME280;41674;52.290;-1.474;2024-01-11T11:46:40;103313.33;;;2.10;89.47
55755;BME280;41674;52.290;-1.474;2024-01-11T11:49:08;103315.22;;;1.78;94.08
55755;BME280;41674;52.290;-1.474;2024-01-11T11:51:39;103312.24;;;2.21;92.59
55755;BME280;41674;52.290;-1.474;2024-01-11T11:54:09;103317.64;;;1.55;94.40
55755;BME280;41674;52.290;-1.474;2024-01-11T11:56:38;103310.37;;;2.94;88.23
55755;BME280;41674;52.290;-1.474;2024-01-11T11:59:08;103320.55;;;1.62;95.45
55755;BME280;41674;52.290;-1.474;2024-01-11T12:01:37;103319.32;;;1.35;98.95
55755;BME280;41674;52.290;-1.474;2024-01-11T12:04:08;103320.42;;;1.48;94.92
55755;BME280;41674;52.290;-1.474;2024-01-11T12:06:37;103312.53;;;2.97;88.72
55755;BME280;41674;52.290;-1.474;2024-01-11T12:09:07;103308.33;;;3.26;86.71
55755;BME280;41674;52.290;-1.474;2024-01-11T12:11:36;103303.97;;;3.73;84.99
55755;BME280;41674;52.290;-1.474;2024-01-11T12:14:06;103300.52;;;2.31;88.92
55755;BME280;41674;52.290;-1.474;2024-01-11T12:16:35;103301.33;;;3.39;85.32
55755;BME280;41674;52.290;-1.474;2024-01-11T12:19:06;103295.55;;;4.03;82.60
55755;BME280;41674;52.290;-1.474;2024-01-11T12:21:34;103289.99;;;4.74;80.71
55755;BME280;41674;52.290;-1.474;2024-01-11T12:24:04;103287.97;;;4.74;79.17
55755;BME280;41674;52.290;-1.474;2024-01-11T12:26:34;103285.62;;;3.77;83.21
55755;BME280;41674;52.290;-1.474;2024-01-11T12:29:04;103282.75;;;4.83;78.50
55755;BME280;41674;52.290;-1.474;2024-01-11T12:31:35;103281.96;;;5.21;77.25
55755;BME280;41674;52.290;-1.474;2024-01-11T12:34:03;103286.00;;;4.94;78.15
55755;BME280;41674;52.290;-1.474;2024-01-11T12:36:32;103286.00;;;3.87;82.99
55755;BME280;41674;52.290;-1.474;2024-01-11T12:39:02;103285.40;;;4.72;79.54
55755;BME280;41674;52.290;-1.474;2024-01-11T12:41:33;103285.82;;;5.00;78.41
55755;BME280;41674;52.290;-1.474;2024-01-11T12:44:02;103287.12;;;5.50;75.62
55755;BME280;41674;52.290;-1.474;2024-01-11T12:46:33;103286.12;;;5.30;76.25
55755;BME280;41674;52.290;-1.474;2024-01-11T12:49:01;103285.55;;;5.86;75.07
55755;BME280;41674;52.290;-1.474;2024-01-11T12:51:32;103284.70;;;5.31;76.52
55755;BME280;41674;52.290;-1.474;2024-01-11T12:54:00;103286.10;;;5.45;75.24
55755;BME280;41674;52.290;-1.474;2024-01-11T12:56:32;103285.40;;;6.21;73.89
55755;BME280;41674;52.290;-1.474;2024-01-11T12:59:06;103281.83;;;6.18;72.77
55755;BME280;41674;52.290;-1.474;2024-01-11T13:01:29;103283.18;;;5.98;73.46
55755;BME280;41674;52.290;-1.474;2024-01-11T13:03:59;103284.16;;;5.95;74.07